sensor_id;sensor_type;location;lat;lon;timestamp;P1;durP1;ratioP1;P2;durP2;ratioP2
65407;SDS011;52017;51.230;-2.322;2022-11-20T00:02:15;6.33;;;3.70;;
65407;SDS011;52017;51.230;-2.322;2022-11-20T00:06:02;13.43;;;4.00;;
65407;SDS011;52017;51.230;-2.322;2022-11-20T00:09:50;7.00;;;3.53;;
65407;SDS011;52017;51.230;-2.322;2022-11-20T00:13:35;8.17;;;3.57;;
65407;SDS011;52017;51.230;-2.322;2022-11-20T00:17:17;7.13;;;3.57;;
65407;SDS011;52017;51.230;-2.322;2022-11-20T00:21:05;5.97;;;3.30;;
65407;SDS011;52017;51.230;-2.322;2022-11-20T00:24:57;7.17;;;3.17;;
65407;SDS011;52017;51.230;-2.322;2022-11-20T00:28:52;6.87;;;2.73;;
65407;SDS011;52017;51.230;-2.322;2022-11-20T00:32:37;4.73;;;2.97;;
65407;SDS011;52017;51.230;-2.322;2022-11-20T00:36:21;8.13;;;3.20;;
65407;SDS011;52017;51.230;-2.322;2022-11-20T00:40:05;6.40;;;3.57;;
65407;SDS011;52017;51.230;-2.322;2022-11-20T00:43:47;12.30;;;3.80;;
65407;SDS011;52017;51.230;-2.322;2022-11-20T00:47:31;7.37;;;4.17;;
65407;SDS011;52017;51.230;-2.322;2022-11-20T00:55:02;8.73;;;5.00;;
65407;SDS011;52017;51.230;-2.322;2022-11-20T00:58:45;8.13;;;4.07;;
65407;SDS011;52017;51.230;-2.322;2022-11-20T01:02:32;9.83;;;4.20;;
65407;SDS011;52017;51.230;-2.322;2022-11-20T01:10:23;8.70;;;4.47;;
65407;SDS011;52017;51.230;-2.322;2022-11-20T01:14:20;9.10;;;3.67;;
65407;SDS011;52017;51.230;-2.322;2022-11-20T01:18:04;6.67;;;3.97;;
65407;SDS011;52017;51.230;-2.322;2022-11-20T01:21:50;6.63;;;4.23;;
65407;SDS011;52017;51.230;-2.322;2022-11-20T01:25:34;9.63;;;4.40;;
65407;SDS011;52017;51.230;-2.322;2022-11-20T01:29:21;9.07;;;3.83;;
65407;SDS011;52017;51.230;-2.322;2022-11-20T01:33:05;6.63;;;3.70;;
65407;SDS011;52017;51.230;-2.322;2022-11-20T01:36:51;7.73;;;3.10;;
65407;SDS011;52017;51.230;-2.322;2022-11-20T01:40:37;5.50;;;3.33;;
65407;SDS011;52017;51.230;-2.322;2022-11-20T01:44:20;8.13;;;3.27;;
65407;SDS011;52017;51.230;-2.322;2022-11-20T01:52:39;4.13;;;2.73;;
65407;SDS011;52017;51.230;-2.322;2022-11-20T01:56:26;3.27;;;2.10;;
65407;SDS011;52017;51.230;-2.322;2022-11-20T02:00:14;3.97;;;2.08;;
65407;SDS011;52017;51.230;-2.322;2022-11-20T02:03:58;4.03;;;1.90;;
65407;SDS011;52017;51.230;-2.322;2022-11-20T02:07:42;4.20;;;2.00;;
65407;SDS011;52017;51.230;-2.322;2022-11-20T02:11:37;2.70;;;1.60;;
65407;SDS011;52017;51.230;-2.322;2022-11-20T02:15:22;5.37;;;1.93;;
65407;SDS011;52017;51.230;-2.322;2022-11-20T02:19:20;6.40;;;2.33;;
65407;SDS011;52017;51.230;-2.322;2022-11-20T02:27:06;3.33;;;1.30;;
65407;SDS011;52017;51.230;-2.322;2022-11-20T02:30:51;2.43;;;1.07;;
65407;SDS011;52017;51.230;-2.322;2022-11-20T02:34:33;2.60;;;1.10;;
65407;SDS011;52017;51.230;-2.322;2022-11-20T02:38:15;1.17;;;0.80;;
65407;SDS011;52017;51.230;-2.322;2022-11-20T02:41:57;0.97;;;0.60;;
65407;SDS011;52017;51.230;-2.322;2022-11-20T02:45:42;1.50;;;0.70;;
65407;SDS011;52017;51.230;-2.322;2022-11-20T02:49:24;1.40;;;0.90;;
65407;SDS011;52017;51.230;-2.322;2022-11-20T02:53:06;1.27;;;0.77;;
65407;SDS011;52017;51.230;-2.322;2022-11-20T02:56:49;1.67;;;0.80;;
65407;SDS011;52017;51.230;-2.322;2022-11-20T03:00:31;1.47;;;0.90;;
65407;SDS011;52017;51.230;-2.322;2022-11-20T03:04:15;2.47;;;0.73;;
65407;SDS011;52017;51.230;-2.322;2022-11-20T03:08:00;1.17;;;0.70;;
65407;SDS011;52017;51.230;-2.322;2022-11-20T03:11:43;1.10;;;0.70;;
65407;SDS011;52017;51.230;-2.322;2022-11-20T03:15:25;2.73;;;0.83;;
65407;SDS011;52017;51.230;-2.322;2022-11-20T03:19:08;2.33;;;0.97;;
65407;SDS011;52017;51.230;-2.322;2022-11-20T03:22:50;1.80;;;0.90;;
65407;SDS011;52017;51.230;-2.322;2022-11-20T03:26:34;2.33;;;0.83;;
65407;SDS011;52017;51.230;-2.322;2022-11-20T03:30:16;3.60;;;1.07;;
65407;SDS011;52017;51.230;-2.322;2022-11-20T03:34:00;3.37;;;0.80;;
65407;SDS011;52017;51.230;-2.322;2022-11-20T03:37:42;1.10;;;0.77;;
65407;SDS011;52017;51.230;-2.322;2022-11-20T03:41:28;2.33;;;0.90;;
65407;SDS011;52017;51.230;-2.322;2022-11-20T03:45:13;3.47;;;1.03;;
65407;SDS011;52017;51.230;-2.322;2022-11-20T03:48:56;1.90;;;0.87;;
65407;SDS011;52017;51.230;-2.322;2022-11-20T03:52:38;1.10;;;0.70;;
65407;SDS011;52017;51.230;-2.322;2022-11-20T03:56:23;1.97;;;0.90;;
65407;SDS011;52017;51.230;-2.322;2022-11-20T04:00:15;1.60;;;0.70;;
65407;SDS011;52017;51.230;-2.322;2022-11-20T04:03:58;3.33;;;1.00;;
65407;SDS011;52017;51.230;-2.322;2022-11-20T04:07:40;1.50;;;0.70;;
65407;SDS011;52017;51.230;-2.322;2022-11-20T04:11:24;1.43;;;0.60;;
65407;SDS011;52017;51.230;-2.322;2022-11-20T04:15:08;1.00;;;0.50;;
65407;SDS011;52017;51.230;-2.322;2022-11-20T04:18:55;1.80;;;0.60;;
65407;SDS011;52017;51.230;-2.322;2022-11-20T04:22:40;0.60;;;0.60;;
65407;SDS011;52017;51.230;-2.322;2022-11-20T04:26:23;3.40;;;0.60;;
65407;SDS011;52017;51.230;-2.322;2022-11-20T04:30:07;1.53;;;0.80;;
65407;SDS011;52017;51.230;-2.322;2022-11-20T04:33:49;1.17;;;0.70;;
65407;SDS011;52017;51.230;-2.322;2022-11-20T04:37:32;1.13;;;0.70;;
65407;SDS011;52017;51.230;-2.322;2022-11-20T04:41:16;0.87;;;0.70;;
65407;SDS011;52017;51.230;-2.322;2022-11-20T04:45:00;0.87;;;0.53;;
65407;SDS011;52017;51.230;-2.322;2022-11-20T04:48:42;1.37;;;0.70;;
65407;SDS011;52017;51.230;-2.322;2022-11-20T04:52:26;1.23;;;0.70;;
65407;SDS011;52017;51.230;-2.322;2022-11-20T04:56:12;2.00;;;0.87;;
65407;SDS011;52017;51.230;-2.322;2022-11-20T04:59:54;0.97;;;0.60;;
65407;SDS011;52017;51.230;-2.322;2022-11-20T05:03:37;2.67;;;0.90;;
65407;SDS011;52017;51.230;-2.322;2022-11-20T05:07:22;4.30;;;1.20;;
65407;SDS011;52017;51.230;-2.322;2022-11-20T05:11:09;4.35;;;2.55;;
65407;SDS011;52017;51.230;-2.322;2022-11-20T05:14:55;4.03;;;1.50;;
65407;SDS011;52017;51.230;-2.322;2022-11-20T05:18:39;7.07;;;1.40;;
65407;SDS011;52017;51.230;-2.322;2022-11-20T05:22:23;10.00;;;1.60;;
65407;SDS011;52017;51.230;-2.322;2022-11-20T05:26:06;6.23;;;1.53;;
65407;SDS011;52017;51.230;-2.322;2022-11-20T05:29:55;8.47;;;1.63;;
65407;SDS011;52017;51.230;-2.322;2022-11-20T05:33:42;7.47;;;2.30;;
65407;SDS011;52017;51.230;-2.322;2022-11-20T05:37:28;13.83;;;2.50;;
65407;SDS011;52017;51.230;-2.322;2022-11-20T05:41:12;11.90;;;2.40;;
65407;SDS011;52017;51.230;-2.322;2022-11-20T05:44:58;16.73;;;2.40;;
65407;SDS011;52017;51.230;-2.322;2022-11-20T05:48:41;17.43;;;3.40;;
65407;SDS011;52017;51.230;-2.322;2022-11-20T05:52:29;11.23;;;2.57;;
65407;SDS011;52017;51.230;-2.322;2022-11-20T05:56:13;12.17;;;2.80;;
65407;SDS011;52017;51.230;-2.322;2022-11-20T05:59:59;13.60;;;2.77;;
65407;SDS011;52017;51.230;-2.322;2022-11-20T06:03:42;13.63;;;3.30;;
65407;SDS011;52017;51.230;-2.322;2022-11-20T06:07:29;15.00;;;4.10;;
65407;SDS011;52017;51.230;-2.322;2022-11-20T06:11:11;12.23;;;2.90;;
65407;SDS011;52017;51.230;-2.322;2022-11-20T06:14:55;15.10;;;3.93;;
65407;SDS011;52017;51.230;-2.322;2022-11-20T06:18:37;17.80;;;3.10;;
65407;SDS011;52017;51.230;-2.322;2022-11-20T06:22:19;15.57;;;3.60;;
65407;SDS011;52017;51.230;-2.322;2022-11-20T06:26:05;19.50;;;4.03;;
65407;SDS011;52017;51.230;-2.322;2022-11-20T06:29:49;16.77;;;4.17;;
65407;SDS011;52017;51.230;-2.322;2022-11-20T06:33:31;19.07;;;4.80;;
65407;SDS011;52017;51.230;-2.322;2022-11-20T06:37:14;29.53;;;5.10;;
65407;SDS011;52017;51.230;-2.322;2022-11-20T06:40:58;17.60;;;4.13;;
65407;SDS011;52017;51.230;-2.322;2022-11-20T06:44:40;21.33;;;4.00;;
65407;SDS011;52017;51.230;-2.322;2022-11-20T06:48:23;20.50;;;4.50;;
65407;SDS011;52017;51.230;-2.322;2022-11-20T06:52:06;24.33;;;4.77;;
65407;SDS011;52017;51.230;-2.322;2022-11-20T06:55:48;24.83;;;4.13;;
65407;SDS011;52017;51.230;-2.322;2022-11-20T06:59:32;24.47;;;4.87;;
65407;SDS011;52017;51.230;-2.322;2022-11-20T07:03:14;21.43;;;4.43;;
65407;SDS011;52017;51.230;-2.322;2022-11-20T07:06:57;22.13;;;5.20;;
65407;SDS011;52017;51.230;-2.322;2022-11-20T07:10:39;21.87;;;4.20;;
65407;SDS011;52017;51.230;-2.322;2022-11-20T07:14:21;20.30;;;4.47;;
65407;SDS011;52017;51.230;-2.322;2022-11-20T07:18:04;21.33;;;5.40;;
65407;SDS011;52017;51.230;-2.322;2022-11-20T07:21:46;18.80;;;3.97;;
65407;SDS011;52017;51.230;-2.322;2022-11-20T07:25:28;19.40;;;6.50;;
65407;SDS011;52017;51.230;-2.322;2022-11-20T07:29:11;19.07;;;7.10;;
65407;SDS011;52017;51.230;-2.322;2022-11-20T07:32:54;42.33;;;25.37;;
65407;SDS011;52017;51.230;-2.322;2022-11-20T07:36:37;41.47;;;21.77;;
65407;SDS011;52017;51.230;-2.322;2022-11-20T07:40:20;29.67;;;14.73;;
65407;SDS011;52017;51.230;-2.322;2022-11-20T07:44:02;18.27;;;6.23;;
65407;SDS011;52017;51.230;-2.322;2022-11-20T07:47:45;13.73;;;5.73;;
65407;SDS011;52017;51.230;-2.322;2022-11-20T07:51:27;19.50;;;6.07;;
65407;SDS011;52017;51.230;-2.322;2022-11-20T07:55:11;18.77;;;4.97;;
65407;SDS011;52017;51.230;-2.322;2022-11-20T07:58:54;20.63;;;6.13;;
65407;SDS011;52017;51.230;-2.322;2022-11-20T08:02:40;20.63;;;4.43;;
65407;SDS011;52017;51.230;-2.322;2022-11-20T08:06:22;15.98;;;4.63;;
65407;SDS011;52017;51.230;-2.322;2022-11-20T08:10:06;21.00;;;4.47;;
65407;SDS011;52017;51.230;-2.322;2022-11-20T08:13:52;29.55;;;5.05;;
65407;SDS011;52017;51.230;-2.322;2022-11-20T08:17:58;31.10;;;5.97;;
65407;SDS011;52017;51.230;-2.322;2022-11-20T08:22:03;31.17;;;7.37;;
65407;SDS011;52017;51.230;-2.322;2022-11-20T08:25:48;24.13;;;5.37;;
65407;SDS011;52017;51.230;-2.322;2022-11-20T08:29:32;31.77;;;5.50;;
65407;SDS011;52017;51.230;-2.322;2022-11-20T08:33:16;28.47;;;6.77;;
65407;SDS011;52017;51.230;-2.322;2022-11-20T08:37:01;34.20;;;5.77;;
65407;SDS011;52017;51.230;-2.322;2022-11-20T08:40:45;19.90;;;5.77;;
65407;SDS011;52017;51.230;-2.322;2022-11-20T08:44:47;24.37;;;5.63;;
65407;SDS011;52017;51.230;-2.322;2022-11-20T08:48:30;30.73;;;7.17;;
65407;SDS011;52017;51.230;-2.322;2022-11-20T08:52:13;29.17;;;5.57;;
65407;SDS011;52017;51.230;-2.322;2022-11-20T08:55:56;28.53;;;6.00;;
65407;SDS011;52017;51.230;-2.322;2022-11-20T08:59:41;35.53;;;6.55;;
65407;SDS011;52017;51.230;-2.322;2022-11-20T09:03:43;25.53;;;5.70;;
65407;SDS011;52017;51.230;-2.322;2022-11-20T09:07:29;29.03;;;6.63;;
65407;SDS011;52017;51.230;-2.322;2022-11-20T09:11:51;27.83;;;5.57;;
65407;SDS011;52017;51.230;-2.322;2022-11-20T09:27:25;29.30;;;5.70;;
65407;SDS011;52017;51.230;-2.322;2022-11-20T09:39:23;25.43;;;6.10;;
65407;SDS011;52017;51.230;-2.322;2022-11-20T09:52:06;28.30;;;6.10;;
65407;SDS011;52017;51.230;-2.322;2022-11-20T09:56:36;23.27;;;5.77;;
65407;SDS011;52017;51.230;-2.322;2022-11-20T10:00:24;17.07;;;4.93;;
65407;SDS011;52017;51.230;-2.322;2022-11-20T10:04:20;21.07;;;4.40;;
65407;SDS011;52017;51.230;-2.322;2022-11-20T10:33:33;21.07;;;4.97;;
65407;SDS011;52017;51.230;-2.322;2022-11-20T10:37:50;35.43;;;8.30;;
65407;SDS011;52017;51.230;-2.322;2022-11-20T10:41:58;20.50;;;5.13;;
65407;SDS011;52017;51.230;-2.322;2022-11-20T10:45:57;24.13;;;6.80;;
65407;SDS011;52017;51.230;-2.322;2022-11-20T10:54:39;24.33;;;5.72;;
65407;SDS011;52017;51.230;-2.322;2022-11-20T11:02:55;21.25;;;6.93;;
65407;SDS011;52017;51.230;-2.322;2022-11-20T11:06:46;26.65;;;7.20;;
65407;SDS011;52017;51.230;-2.322;2022-11-20T11:14:46;18.17;;;6.10;;
65407;SDS011;52017;51.230;-2.322;2022-11-20T11:22:58;15.90;;;6.50;;
65407;SDS011;52017;51.230;-2.322;2022-11-20T11:27:02;19.02;;;7.18;;
65407;SDS011;52017;51.230;-2.322;2022-11-20T11:30:57;19.77;;;6.72;;
65407;SDS011;52017;51.230;-2.322;2022-11-20T11:34:41;20.40;;;7.35;;
65407;SDS011;52017;51.230;-2.322;2022-11-20T11:38:38;18.27;;;5.57;;
65407;SDS011;52017;51.230;-2.322;2022-11-20T11:42:24;19.73;;;5.70;;
65407;SDS011;52017;51.230;-2.322;2022-11-20T11:46:33;19.75;;;4.78;;
65407;SDS011;52017;51.230;-2.322;2022-11-20T11:50:19;17.50;;;4.45;;
65407;SDS011;52017;51.230;-2.322;2022-11-20T11:54:15;21.33;;;4.53;;
65407;SDS011;52017;51.230;-2.322;2022-11-20T12:07:07;15.98;;;4.03;;
65407;SDS011;52017;51.230;-2.322;2022-11-20T12:11:21;22.42;;;5.00;;
65407;SDS011;52017;51.230;-2.322;2022-11-20T12:19:28;16.97;;;6.10;;
65407;SDS011;52017;51.230;-2.322;2022-11-20T12:23:24;21.30;;;4.70;;
65407;SDS011;52017;51.230;-2.322;2022-11-20T12:43:44;19.70;;;5.00;;
65407;SDS011;52017;51.230;-2.322;2022-11-20T12:49:03;19.33;;;4.03;;
65407;SDS011;52017;51.230;-2.322;2022-11-20T12:52:46;19.77;;;4.57;;
65407;SDS011;52017;51.230;-2.322;2022-11-20T12:56:56;17.63;;;4.53;;
65407;SDS011;52017;51.230;-2.322;2022-11-20T13:09:32;8.35;;;2.97;;
65407;SDS011;52017;51.230;-2.322;2022-11-20T13:13:34;15.40;;;3.53;;
65407;SDS011;52017;51.230;-2.322;2022-11-20T13:17:57;9.65;;;2.70;;
65407;SDS011;52017;51.230;-2.322;2022-11-20T13:36:21;6.03;;;1.90;;
65407;SDS011;52017;51.230;-2.322;2022-11-20T13:44:06;6.40;;;1.73;;
65407;SDS011;52017;51.230;-2.322;2022-11-20T13:48:20;6.57;;;1.42;;
65407;SDS011;52017;51.230;-2.322;2022-11-20T13:52:20;6.43;;;2.10;;
65407;SDS011;52017;51.230;-2.322;2022-11-20T14:00:21;7.30;;;1.70;;
65407;SDS011;52017;51.230;-2.322;2022-11-20T14:04:07;4.30;;;1.60;;
65407;SDS011;52017;51.230;-2.322;2022-11-20T14:07:50;8.40;;;1.90;;
65407;SDS011;52017;51.230;-2.322;2022-11-20T14:11:34;5.10;;;1.80;;
65407;SDS011;52017;51.230;-2.322;2022-11-20T14:15:32;8.23;;;2.45;;
65407;SDS011;52017;51.230;-2.322;2022-11-20T14:20:20;8.13;;;2.13;;
65407;SDS011;52017;51.230;-2.322;2022-11-20T14:25:26;8.37;;;3.33;;
65407;SDS011;52017;51.230;-2.322;2022-11-20T14:29:37;8.10;;;3.17;;
65407;SDS011;52017;51.230;-2.322;2022-11-20T14:34:22;10.07;;;2.80;;
65407;SDS011;52017;51.230;-2.322;2022-11-20T14:39:01;7.13;;;2.13;;
65407;SDS011;52017;51.230;-2.322;2022-11-20T14:42:46;9.10;;;2.50;;
65407;SDS011;52017;51.230;-2.322;2022-11-20T14:46:33;5.23;;;2.30;;
65407;SDS011;52017;51.230;-2.322;2022-11-20T14:50:22;6.78;;;1.95;;
65407;SDS011;52017;51.230;-2.322;2022-11-20T14:54:21;8.77;;;2.67;;
65407;SDS011;52017;51.230;-2.322;2022-11-20T14:58:21;7.10;;;2.97;;
65407;SDS011;52017;51.230;-2.322;2022-11-20T15:02:10;10.70;;;3.10;;
65407;SDS011;52017;51.230;-2.322;2022-11-20T15:06:11;9.13;;;2.63;;
65407;SDS011;52017;51.230;-2.322;2022-11-20T15:10:19;9.00;;;3.40;;
65407;SDS011;52017;51.230;-2.322;2022-11-20T15:14:15;16.77;;;3.83;;
65407;SDS011;52017;51.230;-2.322;2022-11-20T15:18:03;14.00;;;3.67;;
65407;SDS011;52017;51.230;-2.322;2022-11-20T15:31:31;11.40;;;3.70;;
65407;SDS011;52017;51.230;-2.322;2022-11-20T15:35:27;11.63;;;3.70;;
65407;SDS011;52017;51.230;-2.322;2022-11-20T15:39:11;12.43;;;3.10;;
65407;SDS011;52017;51.230;-2.322;2022-11-20T15:42:55;11.87;;;2.33;;
65407;SDS011;52017;51.230;-2.322;2022-11-20T16:20:37;12.03;;;3.57;;
65407;SDS011;52017;51.230;-2.322;2022-11-20T16:34:57;12.50;;;4.50;;
65407;SDS011;52017;51.230;-2.322;2022-11-20T16:44:28;12.73;;;4.17;;
65407;SDS011;52017;51.230;-2.322;2022-11-20T16:53:46;19.08;;;4.60;;
65407;SDS011;52017;51.230;-2.322;2022-11-20T16:58:34;17.37;;;6.63;;
65407;SDS011;52017;51.230;-2.322;2022-11-20T17:02:50;6.97;;;3.60;;
65407;SDS011;52017;51.230;-2.322;2022-11-20T17:18:45;15.57;;;6.57;;
65407;SDS011;52017;51.230;-2.322;2022-11-20T17:23:02;10.87;;;4.53;;
65407;SDS011;52017;51.230;-2.322;2022-11-20T17:27:29;18.08;;;6.00;;
65407;SDS011;52017;51.230;-2.322;2022-11-20T17:31:41;15.40;;;6.57;;
65407;SDS011;52017;51.230;-2.322;2022-11-20T17:36:12;13.23;;;6.13;;
65407;SDS011;52017;51.230;-2.322;2022-11-20T17:45:06;18.67;;;7.63;;
65407;SDS011;52017;51.230;-2.322;2022-11-20T17:58:18;15.83;;;8.27;;
65407;SDS011;52017;51.230;-2.322;2022-11-20T18:02:48;14.70;;;5.73;;
65407;SDS011;52017;51.230;-2.322;2022-11-20T18:07:22;11.27;;;6.00;;
65407;SDS011;52017;51.230;-2.322;2022-11-20T18:20:49;21.17;;;9.37;;
65407;SDS011;52017;51.230;-2.322;2022-11-20T18:25:20;16.33;;;9.27;;
65407;SDS011;52017;51.230;-2.322;2022-11-20T18:29:40;16.40;;;9.80;;
65407;SDS011;52017;51.230;-2.322;2022-11-20T18:33:55;15.03;;;8.37;;
65407;SDS011;52017;51.230;-2.322;2022-11-20T18:38:10;17.93;;;8.37;;
65407;SDS011;52017;51.230;-2.322;2022-11-20T18:42:14;21.43;;;11.40;;
65407;SDS011;52017;51.230;-2.322;2022-11-20T18:46:34;19.67;;;10.60;;
65407;SDS011;52017;51.230;-2.322;2022-11-20T18:50:49;21.10;;;10.57;;
65407;SDS011;52017;51.230;-2.322;2022-11-20T18:55:10;21.03;;;11.07;;
65407;SDS011;52017;51.230;-2.322;2022-11-20T18:59:20;18.23;;;12.67;;
65407;SDS011;52017;51.230;-2.322;2022-11-20T19:07:54;23.23;;;13.23;;
65407;SDS011;52017;51.230;-2.322;2022-11-20T19:12:14;28.80;;;15.87;;
65407;SDS011;52017;51.230;-2.322;2022-11-20T19:25:33;25.80;;;5.60;;
65407;SDS011;52017;51.230;-2.322;2022-11-20T19:29:32;17.97;;;5.50;;
65407;SDS011;52017;51.230;-2.322;2022-11-20T21:18:41;18.93;;;7.70;;
65407;SDS011;52017;51.230;-2.322;2022-11-20T21:26:14;17.10;;;5.53;;
65407;SDS011;52017;51.230;-2.322;2022-11-20T21:30:25;15.73;;;6.00;;
65407;SDS011;52017;51.230;-2.322;2022-11-20T21:34:27;17.43;;;7.13;;
65407;SDS011;52017;51.230;-2.322;2022-11-20T21:42:25;19.57;;;8.00;;
65407;SDS011;52017;51.230;-2.322;2022-11-20T21:46:30;15.83;;;7.20;;
65407;SDS011;52017;51.230;-2.322;2022-11-20T21:50:35;20.40;;;6.83;;
65407;SDS011;52017;51.230;-2.322;2022-11-20T22:45:49;29.23;;;17.37;;
65407;SDS011;52017;51.230;-2.322;2022-11-20T22:50:03;89.23;;;52.67;;
65407;SDS011;52017;51.230;-2.322;2022-11-20T22:54:05;18.95;;;7.50;;
65407;SDS011;52017;51.230;-2.322;2022-11-20T22:58:07;20.13;;;6.97;;
65407;SDS011;52017;51.230;-2.322;2022-11-20T23:02:19;12.03;;;4.80;;
65407;SDS011;52017;51.230;-2.322;2022-11-20T23:06:31;31.43;;;8.30;;
65407;SDS011;52017;51.230;-2.322;2022-11-20T23:11:24;20.50;;;7.73;;
65407;SDS011;52017;51.230;-2.322;2022-11-20T23:15:49;15.80;;;6.07;;
65407;SDS011;52017;51.230;-2.322;2022-11-20T23:19:56;17.90;;;6.03;;
65407;SDS011;52017;51.230;-2.322;2022-11-20T23:28:47;16.90;;;4.77;;
65407;SDS011;52017;51.230;-2.322;2022-11-20T23:33:12;17.17;;;4.83;;
65407;SDS011;52017;51.230;-2.322;2022-11-20T23:41:23;18.83;;;5.53;;
65407;SDS011;52017;51.230;-2.322;2022-11-20T23:49:29;19.50;;;6.33;;
65407;SDS011;52017;51.230;-2.322;2022-11-20T23:53:54;17.87;;;5.47;;
65407;SDS011;52017;51.230;-2.322;2022-11-20T23:58:32;12.87;;;4.73;;
